createdAt,value
2019-05-01T00:01:42.708Z,100307.47
2019-05-01T00:03:55.120Z,100307.27
2019-05-01T00:05:34.088Z,100304.55
2019-05-01T00:07:15.297Z,100299.78
2019-05-01T00:08:50.273Z,100300.98
2019-05-01T00:10:26.405Z,100295.27
2019-05-01T00:12:01.291Z,100303.13
2019-05-01T00:13:36.138Z,100300.19
2019-05-01T00:15:12.671Z,100301.67
2019-05-01T00:16:48.256Z,100300.36
2019-05-01T00:18:23.571Z,100294.47
2019-05-01T00:19:58.722Z,100295.64
2019-05-01T00:21:33.966Z,100293.05
2019-05-01T00:23:08.817Z,100293.13
2019-05-01T00:24:43.618Z,100292.36
2019-05-01T00:26:18.437Z,100285.70
2019-05-01T00:27:52.889Z,100288.14
2019-05-01T00:29:27.263Z,100290.20
2019-05-01T00:31:02.059Z,100289.94
2019-05-01T00:32:36.433Z,100288.56
2019-05-01T00:34:10.815Z,100293.97
2019-05-01T00:35:45.192Z,100287.13
2019-05-01T00:37:19.620Z,100291.17
2019-05-01T00:38:54.015Z,100281.31
2019-05-01T00:40:29.064Z,100280.71
2019-05-01T00:42:04.303Z,100279.02
2019-05-01T00:43:39.560Z,100277.13
2019-05-01T00:45:14.866Z,100278.53
2019-05-01T00:46:49.676Z,100276.01
2019-05-01T00:48:24.476Z,100265.66
2019-05-01T00:49:59.320Z,100268.83
2019-05-01T00:51:34.115Z,100267.14
2019-05-01T00:53:08.951Z,100272.58
2019-05-01T00:54:45.399Z,100264.02
2019-05-01T00:56:39.274Z,100267.30
2019-05-01T00:58:23.470Z,100263.15
2019-05-01T01:00:15.912Z,100261.45
2019-05-01T01:02:12.839Z,100264.98
2019-05-01T01:03:47.678Z,100267.80
2019-05-01T01:05:22.552Z,100256.40
2019-05-01T01:06:57.710Z,100260.06
2019-05-01T01:08:32.571Z,100261.16
2019-05-01T01:10:08.162Z,100259.91
2019-05-01T01:11:42.958Z,100257.72
2019-05-01T01:13:18.139Z,100259.50
2019-05-01T01:14:53.060Z,100255.91
2019-05-01T01:16:27.867Z,100253.83
2019-05-01T01:18:03.010Z,100257.75
2019-05-01T01:19:37.832Z,100254.56
2019-05-01T01:21:12.680Z,100251.59
2019-05-01T01:22:47.564Z,100249.59
2019-05-01T01:24:22.612Z,100247.01
2019-05-01T01:25:57.618Z,100243.59
2019-05-01T01:27:32.554Z,100234.50
2019-05-01T01:29:07.511Z,100235.48
2019-05-01T01:30:55.143Z,100228.17
2019-05-01T01:32:19.326Z,100234.23
2019-05-01T01:33:54.616Z,100231.87
2019-05-01T01:35:29.578Z,100225.56
2019-05-01T01:37:04.444Z,100225.55
2019-05-01T01:38:39.385Z,100214.46
2019-05-01T01:40:14.837Z,100217.50
2019-05-01T01:41:50.070Z,100211.91
2019-05-01T01:43:48.658Z,100212.81
2019-05-01T01:45:37.291Z,100215.94
2019-05-01T01:47:12.579Z,100216.06
2019-05-01T01:48:47.786Z,100218.34
2019-05-01T01:50:22.675Z,100216.16
2019-05-01T01:51:57.663Z,100223.16
2019-05-01T01:53:33.686Z,100211.72
2019-05-01T01:55:08.665Z,100210.16
2019-05-01T01:56:43.777Z,100206.37
2019-05-01T01:58:21.067Z,100205.09
2019-05-01T01:59:56.075Z,100203.36
2019-05-01T02:01:38.727Z,100201.05
2019-05-01T02:03:14.071Z,100203.59
2019-05-01T02:05:06.138Z,100197.33
2019-05-01T02:06:41.060Z,100197.30
2019-05-01T02:08:15.533Z,100198.22
2019-05-01T02:09:50.424Z,100206.15
2019-05-01T02:11:25.026Z,100200.56
2019-05-01T02:12:59.862Z,100196.55
2019-05-01T02:14:34.686Z,100205.33
2019-05-01T02:16:09.129Z,100194.10
2019-05-01T02:17:43.685Z,100197.55
2019-05-01T02:19:18.066Z,100198.55
2019-05-01T02:20:52.458Z,100199.22
2019-05-01T02:22:26.850Z,100193.28
2019-05-01T02:24:01.236Z,100185.75
2019-05-01T02:25:37.865Z,100189.41
2019-05-01T02:27:17.910Z,100187.07
2019-05-01T02:29:03.457Z,100190.13
2019-05-01T02:30:39.585Z,100177.38
2019-05-01T02:32:17.049Z,100186.63
2019-05-01T02:33:52.956Z,100182.52
2019-05-01T02:35:30.463Z,100177.91
2019-05-01T02:37:06.626Z,100183.06
2019-05-01T02:38:45.032Z,100181.78
2019-05-01T02:40:56.312Z,100180.56
2019-05-01T02:42:35.334Z,100186.91
2019-05-01T02:44:22.107Z,100185.91
2019-05-01T02:45:59.033Z,100182.64
2019-05-01T02:47:37.735Z,100181.30
2019-05-01T02:49:27.844Z,100176.81
2019-05-01T02:51:05.258Z,100172.61
2019-05-01T02:52:43.033Z,100169.28
2019-05-01T02:54:19.919Z,100167.73
2019-05-01T02:56:14.514Z,100175.56
2019-05-01T02:57:49.732Z,100176.89
2019-05-01T02:59:27.223Z,100177.65
2019-05-01T03:01:01.695Z,100178.78
2019-05-01T03:02:37.618Z,100168.34
2019-05-01T03:04:12.463Z,100170.31
2019-05-01T03:05:46.921Z,100174.47
2019-05-01T03:07:23.243Z,100173.19
2019-05-01T03:08:59.405Z,100174.05
2019-05-01T03:10:34.083Z,100177.09
2019-05-01T03:12:09.367Z,100182.27
2019-05-01T03:13:47.156Z,100189.41
2019-05-01T03:15:25.283Z,100182.80
2019-05-01T03:17:03.523Z,100188.96
2019-05-01T03:18:42.599Z,100193.62
2019-05-01T03:20:39.574Z,100191.30
2019-05-01T03:22:32.281Z,100184.90
2019-05-01T03:24:10.388Z,100182.80
2019-05-01T03:25:45.443Z,100180.13
2019-05-01T03:27:19.967Z,100181.58
2019-05-01T03:28:54.822Z,100183.05
2019-05-01T03:30:29.272Z,100180.72
2019-05-01T03:32:16.942Z,100173.33
2019-05-01T03:33:40.036Z,100174.60
2019-05-01T03:35:14.655Z,100171.19
2019-05-01T03:36:49.625Z,100168.89
2019-05-01T03:38:24.524Z,100169.92
2019-05-01T03:39:59.020Z,100174.98
2019-05-01T03:41:33.526Z,100177.77
2019-05-01T03:43:08.442Z,100180.59
2019-05-01T03:44:43.412Z,100175.18
2019-05-01T03:46:18.877Z,100180.40
2019-05-01T03:47:54.271Z,100178.50
2019-05-01T03:49:28.853Z,100169.43
2019-05-01T03:51:03.713Z,100164.13
2019-05-01T03:52:38.347Z,100153.36
2019-05-01T03:54:13.689Z,100153.10
2019-05-01T03:55:48.995Z,100144.90
2019-05-01T03:57:24.514Z,100140.66
2019-05-01T03:59:00.092Z,100156.13
2019-05-01T04:00:47.699Z,100154.59
2019-05-01T04:02:33.572Z,100165.32
2019-05-01T04:04:10.272Z,100168.32
2019-05-01T04:05:45.019Z,100156.49
2019-05-01T04:07:19.542Z,100157.80
2019-05-01T04:08:54.197Z,100155.16
2019-05-01T04:10:28.811Z,100156.27
2019-05-01T04:12:03.478Z,100157.45
2019-05-01T04:13:38.595Z,100158.08
2019-05-01T04:15:13.693Z,100158.29
2019-05-01T04:16:52.554Z,100156.89
2019-05-01T04:18:28.404Z,100162.98
2019-05-01T04:20:03.977Z,100159.14
2019-05-01T04:21:47.076Z,100166.42
2019-05-01T04:23:22.324Z,100159.30
2019-05-01T04:24:58.345Z,100156.81
2019-05-01T04:26:33.568Z,100157.42
2019-05-01T04:28:26.640Z,100160.69
2019-05-01T04:30:39.433Z,100159.76
2019-05-01T04:32:26.619Z,100149.19
2019-05-01T04:34:04.911Z,100147.65
2019-05-01T04:36:03.098Z,100150.06
2019-05-01T04:37:38.153Z,100149.37
2019-05-01T04:39:13.518Z,100156.61
2019-05-01T04:40:48.484Z,100151.61
2019-05-01T04:42:24.079Z,100156.52
2019-05-01T04:43:59.815Z,100151.47
2019-05-01T04:45:34.943Z,100161.39
2019-05-01T04:47:09.985Z,100169.93
2019-05-01T04:48:45.129Z,100174.59
2019-05-01T04:50:21.442Z,100173.66
2019-05-01T04:51:57.191Z,100166.37
2019-05-01T04:53:32.336Z,100176.17
2019-05-01T04:55:08.085Z,100186.64
2019-05-01T04:56:43.746Z,100192.92
2019-05-01T04:58:18.807Z,100193.92
2019-05-01T04:59:54.303Z,100186.17
2019-05-01T05:01:35.244Z,100181.44
2019-05-01T05:03:15.616Z,100174.90
2019-05-01T05:04:50.767Z,100185.34
2019-05-01T05:06:26.792Z,100172.86
2019-05-01T05:08:02.338Z,100174.47
2019-05-01T05:09:45.719Z,100161.28
2019-05-01T05:11:24.955Z,100156.29
2019-05-01T05:13:09.115Z,100150.73
2019-05-01T05:14:46.938Z,100150.36
2019-05-01T05:16:44.261Z,100142.16
2019-05-01T05:18:19.306Z,100143.53
2019-05-01T05:19:54.563Z,100140.34
2019-05-01T05:21:29.800Z,100145.73
2019-05-01T05:23:04.789Z,100141.91
2019-05-01T05:24:39.720Z,100150.86
2019-05-01T05:26:14.117Z,100148.83
2019-05-01T05:27:50.865Z,100151.55
2019-05-01T05:29:25.772Z,100152.20
2019-05-01T05:31:00.921Z,100149.54
2019-05-01T05:32:38.006Z,100134.28
2019-05-01T05:34:14.609Z,100152.59
2019-05-01T05:35:50.172Z,100144.03
2019-05-01T05:37:30.091Z,100138.69
2019-05-01T05:39:17.933Z,100136.16
2019-05-01T05:40:53.208Z,100129.41
2019-05-01T05:42:27.729Z,100130.45
2019-05-01T05:44:02.575Z,100126.36
2019-05-01T05:45:37.263Z,100130.24
2019-05-01T05:47:11.941Z,100134.41
2019-05-01T05:48:47.035Z,100135.64
2019-05-01T05:50:23.227Z,100140.00
2019-05-01T05:52:19.054Z,100140.46
2019-05-01T05:53:57.901Z,100139.46
2019-05-01T05:55:42.140Z,100146.22
2019-05-01T05:57:33.142Z,100146.56
2019-05-01T05:59:13.199Z,100148.61
2019-05-01T06:01:14.967Z,100148.75
2019-05-01T06:03:05.748Z,100154.30
2019-05-01T06:05:12.973Z,100156.89
2019-05-01T06:07:07.077Z,100153.02
2019-05-01T06:08:44.592Z,100151.23
2019-05-01T06:10:31.015Z,100152.99
2019-05-01T06:12:15.634Z,100146.83
2019-05-01T06:14:15.798Z,100151.83
2019-05-01T06:16:12.332Z,100139.27
2019-05-01T06:17:53.665Z,100150.09
2019-05-01T06:19:45.932Z,100153.44
2019-05-01T06:21:25.400Z,100149.45
2019-05-01T06:23:15.864Z,100148.09
2019-05-01T06:24:52.860Z,100143.92
2019-05-01T06:26:38.016Z,100139.94
2019-05-01T06:28:14.168Z,100150.25
2019-05-01T06:29:49.328Z,100152.86
2019-05-01T06:31:24.673Z,100147.36
2019-05-01T06:32:59.279Z,100154.95
2019-05-01T06:34:35.293Z,100158.43
2019-05-01T06:36:13.185Z,100155.20
2019-05-01T06:38:02.272Z,100145.73
2019-05-01T06:39:38.189Z,100142.18
2019-05-01T06:41:13.750Z,100143.73
2019-05-01T06:42:50.151Z,100135.62
2019-05-01T06:44:44.083Z,100144.27
2019-05-01T06:46:36.823Z,100138.87
2019-05-01T06:48:14.251Z,100135.41
2019-05-01T06:50:01.275Z,100142.41
2019-05-01T06:51:43.699Z,100143.11
2019-05-01T06:53:19.059Z,100144.50
2019-05-01T06:54:55.973Z,100144.66
2019-05-01T06:56:30.596Z,100151.71
2019-05-01T06:58:06.039Z,100153.12
2019-05-01T06:59:42.735Z,100149.72
2019-05-01T07:01:18.844Z,100153.08
2019-05-01T07:02:56.371Z,100149.86
2019-05-01T07:04:32.316Z,100145.37
2019-05-01T07:06:14.017Z,100147.34
2019-05-01T07:07:48.244Z,100146.27
2019-05-01T07:09:28.146Z,100159.75
2019-05-01T07:10:59.870Z,100155.81
2019-05-01T07:12:35.421Z,100150.84
2019-05-01T07:14:11.260Z,100148.27
2019-05-01T07:15:46.129Z,100156.39
2019-05-01T07:17:20.960Z,100152.44
2019-05-01T07:18:57.972Z,100147.45
2019-05-01T07:20:58.526Z,100147.27
2019-05-01T07:22:37.178Z,100139.70
2019-05-01T07:24:10.243Z,100132.98
2019-05-01T07:25:44.846Z,100123.94
2019-05-01T07:27:23.784Z,100130.64
2019-05-01T07:28:58.049Z,100132.22
2019-05-01T07:30:54.804Z,100125.00
2019-05-01T07:32:28.254Z,100134.61
2019-05-01T07:34:02.713Z,100122.64
2019-05-01T07:35:38.292Z,100125.61
2019-05-01T07:37:13.249Z,100132.72
2019-05-01T07:38:48.582Z,100136.73
2019-05-01T07:40:28.938Z,100125.27
2019-05-01T07:42:18.729Z,100122.64
2019-05-01T07:44:21.274Z,100120.62
2019-05-01T07:46:04.400Z,100120.66
2019-05-01T07:47:43.334Z,100128.05
2019-05-01T07:49:19.403Z,100131.42
2019-05-01T07:50:53.878Z,100127.98
2019-05-01T07:52:29.359Z,100132.77
2019-05-01T07:54:08.465Z,100130.68
2019-05-01T07:55:41.430Z,100133.07
2019-05-01T07:57:16.845Z,100126.78
2019-05-01T07:58:53.373Z,100123.44
2019-05-01T08:00:41.453Z,100127.27
2019-05-01T08:02:15.442Z,100127.53
2019-05-01T08:03:50.123Z,100129.17
2019-05-01T08:05:24.526Z,100133.52
2019-05-01T08:06:58.916Z,100134.91
2019-05-01T08:08:33.565Z,100137.62
2019-05-01T08:10:08.350Z,100136.75
2019-05-01T08:11:44.026Z,100137.82
2019-05-01T08:13:18.954Z,100136.23
2019-05-01T08:14:53.696Z,100138.02
2019-05-01T08:16:28.249Z,100143.18
2019-05-01T08:18:24.040Z,100138.23
2019-05-01T08:20:09.919Z,100135.75
2019-05-01T08:22:03.058Z,100131.22
2019-05-01T08:23:37.630Z,100134.91
2019-05-01T08:25:12.534Z,100135.41
2019-05-01T08:26:46.999Z,100137.77
2019-05-01T08:28:27.710Z,100135.95
2019-05-01T08:30:22.975Z,100135.80
2019-05-01T08:32:05.851Z,100146.20
2019-05-01T08:33:54.216Z,100148.31
2019-05-01T08:35:31.777Z,100140.20
2019-05-01T08:37:06.592Z,100140.36
2019-05-01T08:38:41.044Z,100142.20
2019-05-01T08:40:20.408Z,100139.03
2019-05-01T08:41:52.324Z,100136.89
2019-05-01T08:43:26.705Z,100137.91
2019-05-01T08:45:15.690Z,100138.18
2019-05-01T08:46:59.695Z,100143.80
2019-05-01T08:48:57.178Z,100140.34
2019-05-01T08:50:31.857Z,100143.48
2019-05-01T08:52:12.550Z,100145.27
2019-05-01T08:53:42.614Z,100143.95
2019-05-01T08:55:17.116Z,100149.25
2019-05-01T08:56:53.080Z,100148.34
2019-05-01T08:58:28.386Z,100146.95
2019-05-01T09:00:03.527Z,100147.53
2019-05-01T09:01:37.921Z,100145.76
2019-05-01T09:03:13.717Z,100146.39
2019-05-01T09:05:01.323Z,100141.36
2019-05-01T09:06:34.626Z,100140.72
2019-05-01T09:08:01.347Z,100130.92
2019-05-01T09:09:39.861Z,100133.80
2019-05-01T09:11:11.869Z,100129.76
2019-05-01T09:12:46.785Z,100130.45
2019-05-01T09:14:22.751Z,100122.47
2019-05-01T09:15:57.465Z,100127.44
2019-05-01T09:17:31.932Z,100117.27
2019-05-01T09:19:06.370Z,100116.34
2019-05-01T09:20:41.342Z,100118.08
2019-05-01T09:22:15.858Z,100118.38
2019-05-01T09:23:51.455Z,100123.88
2019-05-01T09:25:35.367Z,100124.85
2019-05-01T09:27:32.789Z,100125.34
2019-05-01T09:29:11.005Z,100123.03
2019-05-01T09:30:52.019Z,100116.03
2019-05-01T09:32:27.139Z,100134.11
2019-05-01T09:34:01.553Z,100130.12
2019-05-01T09:35:40.322Z,100126.74
2019-05-01T09:37:12.074Z,100132.05
2019-05-01T09:38:46.545Z,100122.86
2019-05-01T09:40:21.008Z,100118.36
2019-05-01T09:41:55.509Z,100127.72
2019-05-01T09:43:30.920Z,100118.37
2019-05-01T09:45:08.476Z,100109.88
2019-05-01T09:46:43.530Z,100105.64
2019-05-01T09:48:18.435Z,100098.22
2019-05-01T09:49:55.609Z,100106.86
2019-05-01T09:51:47.673Z,100110.36
2019-05-01T09:53:43.360Z,100109.55
2019-05-01T09:55:24.598Z,100110.94
2019-05-01T09:56:58.930Z,100111.58
2019-05-01T09:58:33.292Z,100117.67
2019-05-01T10:00:09.931Z,100128.20
2019-05-01T10:01:44.366Z,100120.34
2019-05-01T10:03:19.089Z,100131.89
2019-05-01T10:04:53.463Z,100128.49
2019-05-01T10:06:28.233Z,100130.62
2019-05-01T10:08:04.189Z,100128.47
2019-05-01T10:09:39.168Z,100129.98
2019-05-01T10:11:13.895Z,100130.82
2019-05-01T10:12:49.333Z,100125.55
2019-05-01T10:14:23.985Z,100115.50
2019-05-01T10:15:58.687Z,100117.56
2019-05-01T10:17:33.061Z,100113.67
2019-05-01T10:19:07.722Z,100106.69
2019-05-01T10:20:42.527Z,100097.50
2019-05-01T10:22:16.989Z,100097.37
2019-05-01T10:23:52.903Z,100084.91
2019-05-01T10:25:27.767Z,100088.28
2019-05-01T10:27:04.318Z,100087.52
2019-05-01T10:28:50.132Z,100086.75
2019-05-01T10:30:36.352Z,100082.50
2019-05-01T10:32:21.764Z,100077.75
2019-05-01T10:34:02.949Z,100075.38
2019-05-01T10:36:02.371Z,100076.34
2019-05-01T10:37:37.177Z,100076.37
2019-05-01T10:39:16.016Z,100071.81
2019-05-01T10:40:49.066Z,100074.29
2019-05-01T10:42:24.144Z,100069.41
2019-05-01T10:43:58.570Z,100077.87
2019-05-01T10:45:33.043Z,100070.38
2019-05-01T10:47:07.515Z,100072.77
2019-05-01T10:48:41.947Z,100067.26
2019-05-01T10:50:16.442Z,100070.30
2019-05-01T10:51:50.913Z,100070.09
2019-05-01T10:53:25.658Z,100080.64
2019-05-01T10:55:00.508Z,100073.66
2019-05-01T10:56:35.168Z,100073.50
2019-05-01T10:58:12.850Z,100072.13
2019-05-01T10:59:45.999Z,100064.23
2019-05-01T11:01:31.123Z,100059.76
2019-05-01T11:03:05.888Z,100055.09
2019-05-01T11:04:40.614Z,100045.20
2019-05-01T11:06:15.015Z,100042.95
2019-05-01T11:07:50.066Z,100038.42
2019-05-01T11:09:24.854Z,100043.51
2019-05-01T11:10:59.298Z,100043.08
2019-05-01T11:12:34.049Z,100029.84
2019-05-01T11:14:08.477Z,100025.50
2019-05-01T11:15:42.850Z,100026.49
2019-05-01T11:17:17.373Z,100026.97
2019-05-01T11:18:52.141Z,100023.98
2019-05-01T11:20:27.191Z,100015.27
2019-05-01T11:22:02.409Z,100019.44
2019-05-01T11:23:37.194Z,100018.28
2019-05-01T11:25:13.291Z,100013.55
2019-05-01T11:26:48.189Z,100005.84
2019-05-01T11:28:23.058Z,100001.73
2019-05-01T11:29:57.922Z,100000.31
2019-05-01T11:31:40.317Z,100001.00
2019-05-01T11:33:23.976Z,99996.67
2019-05-01T11:35:16.299Z,99986.50
2019-05-01T11:37:06.493Z,99987.16
2019-05-01T11:38:47.883Z,99986.50
2019-05-01T11:40:32.258Z,99985.25
2019-05-01T11:42:10.457Z,99978.53
2019-05-01T11:43:45.551Z,99982.60
2019-05-01T11:45:20.526Z,99981.41
2019-05-01T11:46:54.900Z,99975.31
2019-05-01T11:48:30.232Z,99982.49
2019-05-01T11:50:05.830Z,99991.94
2019-05-01T11:51:40.635Z,99991.77
2019-05-01T11:53:15.426Z,99991.48
2019-05-01T11:54:49.852Z,99994.44
2019-05-01T11:56:24.243Z,99978.33
2019-05-01T11:57:58.938Z,99975.05
2019-05-01T11:59:34.339Z,99970.72
2019-05-01T12:01:10.379Z,99967.16
2019-05-01T12:02:45.112Z,99963.34
2019-05-01T12:04:19.470Z,99963.63
2019-05-01T12:05:53.859Z,99975.80
2019-05-01T12:07:28.884Z,99978.79
2019-05-01T12:09:05.139Z,99987.53
2019-05-01T12:10:39.605Z,99981.66
2019-05-01T12:12:15.664Z,99988.55
2019-05-01T12:13:50.426Z,99992.91
2019-05-01T12:15:24.914Z,99999.77
2019-05-01T12:17:22.792Z,99992.28
2019-05-01T12:18:57.186Z,99991.66
2019-05-01T12:20:31.551Z,99981.47
2019-05-01T12:22:05.993Z,99970.75
2019-05-01T12:23:40.601Z,99963.84
2019-05-01T12:25:15.417Z,99956.48
2019-05-01T12:26:49.782Z,99959.66
2019-05-01T12:28:24.699Z,99949.26
2019-05-01T12:29:59.454Z,99954.86
2019-05-01T12:31:34.514Z,99960.70
2019-05-01T12:33:09.638Z,99949.41
2019-05-01T12:34:44.766Z,99960.36
2019-05-01T12:36:19.575Z,99964.84
2019-05-01T12:37:56.410Z,99962.79
2019-05-01T12:39:31.287Z,99963.44
2019-05-01T12:41:23.615Z,99974.75
2019-05-01T12:42:58.069Z,99970.64
2019-05-01T12:44:32.438Z,99967.11
2019-05-01T12:46:07.040Z,99968.24
2019-05-01T12:48:06.475Z,99972.86
2019-05-01T12:49:40.877Z,99957.02
2019-05-01T12:51:15.282Z,99973.20
2019-05-01T12:53:11.834Z,99969.57
2019-05-01T12:54:52.281Z,99973.22
2019-05-01T12:56:40.394Z,99965.66
2019-05-01T12:58:14.764Z,99964.17
2019-05-01T12:59:49.410Z,99954.64
2019-05-01T13:01:23.778Z,99958.25
2019-05-01T13:02:58.507Z,99961.20
2019-05-01T13:04:33.122Z,99955.36
2019-05-01T13:06:07.835Z,99959.20
2019-05-01T13:07:42.344Z,99957.02
2019-05-01T13:09:16.754Z,99956.23
2019-05-01T13:10:51.198Z,99943.79
2019-05-01T13:12:25.554Z,99938.27
2019-05-01T13:14:00.145Z,99943.34
2019-05-01T13:15:34.834Z,99958.51
2019-05-01T13:17:09.630Z,99942.67
2019-05-01T13:18:44.038Z,99938.75
2019-05-01T13:20:20.566Z,99930.27
2019-05-01T13:21:54.755Z,99929.97
2019-05-01T13:23:29.455Z,99926.91
2019-05-01T13:25:04.203Z,99928.92
2019-05-01T13:26:53.954Z,99923.91
2019-05-01T13:28:56.804Z,99922.47
2019-05-01T13:30:45.091Z,99908.98
2019-05-01T13:32:45.887Z,99911.13
2019-05-01T13:34:20.327Z,99916.22
2019-05-01T13:35:54.732Z,99910.77
2019-05-01T13:37:29.182Z,99915.34
2019-05-01T13:39:03.729Z,99905.73
2019-05-01T13:40:38.191Z,99904.77
2019-05-01T13:42:12.830Z,99896.50
2019-05-01T13:43:47.529Z,99888.02
2019-05-01T13:45:22.265Z,99884.39
2019-05-01T13:46:56.694Z,99879.19
2019-05-01T13:48:31.325Z,99886.98
2019-05-01T13:50:06.831Z,99888.84
2019-05-01T13:51:41.574Z,99887.24
2019-05-01T13:53:16.057Z,99888.38
2019-05-01T13:54:50.862Z,99894.16
2019-05-01T13:56:25.257Z,99888.52
2019-05-01T13:57:59.650Z,99888.54
2019-05-01T13:59:34.329Z,99878.89
2019-05-01T14:01:08.797Z,99882.29
2019-05-01T14:02:43.210Z,99879.17
2019-05-01T14:04:21.521Z,99886.42
2019-05-01T14:05:55.362Z,99880.32
2019-05-01T14:07:29.990Z,99878.35
2019-05-01T14:09:06.622Z,99882.81
2019-05-01T14:10:41.286Z,99876.81
2019-05-01T14:12:15.646Z,99882.47
2019-05-01T14:13:50.015Z,99877.58
2019-05-01T14:15:24.392Z,99884.28
2019-05-01T14:16:58.795Z,99878.90
2019-05-01T14:18:33.230Z,99874.55
2019-05-01T14:20:20.415Z,99874.23
2019-05-01T14:22:14.756Z,99869.72
2019-05-01T14:24:23.525Z,99867.48
2019-05-01T14:26:04.690Z,99865.70
2019-05-01T14:27:39.083Z,99867.43
2019-05-01T14:29:13.534Z,99864.34
2019-05-01T14:30:47.884Z,99854.95
2019-05-01T14:32:22.662Z,99851.52
2019-05-01T14:33:57.029Z,99852.86
2019-05-01T14:35:31.406Z,99853.00
2019-05-01T14:37:06.121Z,99858.19
2019-05-01T14:38:40.513Z,99857.07
2019-05-01T14:40:15.221Z,99848.20
2019-05-01T14:41:50.002Z,99860.43
2019-05-01T14:43:25.604Z,99856.27
2019-05-01T14:45:00.549Z,99853.53
2019-05-01T14:46:34.953Z,99848.42
2019-05-01T14:48:09.305Z,99847.11
2019-05-01T14:49:43.825Z,99846.52
2019-05-01T14:51:21.611Z,99844.50
2019-05-01T14:52:54.961Z,99843.15
2019-05-01T14:54:29.481Z,99841.41
2019-05-01T14:56:04.704Z,99827.85
2019-05-01T14:57:39.588Z,99826.51
2019-05-01T14:59:14.439Z,99828.48
2019-05-01T15:00:49.579Z,99827.57
2019-05-01T15:02:24.426Z,99821.50
2019-05-01T15:03:59.604Z,99822.78
2019-05-01T15:05:35.712Z,99824.83
2019-05-01T15:07:11.281Z,99819.45
2019-05-01T15:08:46.233Z,99816.79
2019-05-01T15:10:20.790Z,99812.66
2019-05-01T15:11:55.181Z,99813.65
2019-05-01T15:13:52.096Z,99816.45
2019-05-01T15:15:46.518Z,99806.28
2019-05-01T15:17:34.139Z,99815.30
2019-05-01T15:19:11.833Z,99813.60
2019-05-01T15:20:46.578Z,99815.95
2019-05-01T15:22:24.059Z,99813.83
2019-05-01T15:23:58.709Z,99811.77
2019-05-01T15:25:33.069Z,99805.52
2019-05-01T15:27:08.073Z,99810.45
2019-05-01T15:28:42.865Z,99807.89
2019-05-01T15:30:20.033Z,99807.27
2019-05-01T15:31:54.821Z,99804.83
2019-05-01T15:33:29.634Z,99804.47
2019-05-01T15:35:05.014Z,99804.75
2019-05-01T15:36:39.798Z,99796.70
2019-05-01T15:38:15.128Z,99796.73
2019-05-01T15:39:58.090Z,99791.48
2019-05-01T15:41:52.132Z,99798.55
2019-05-01T15:43:38.363Z,99796.21
2019-05-01T15:45:13.500Z,99796.20
2019-05-01T15:46:48.478Z,99797.84
2019-05-01T15:48:23.256Z,99802.95
2019-05-01T15:49:58.060Z,99798.86
2019-05-01T15:51:32.834Z,99782.41
2019-05-01T15:53:07.907Z,99792.77
2019-05-01T15:54:42.717Z,99794.40
2019-05-01T15:56:17.593Z,99792.10
2019-05-01T15:57:52.426Z,99789.13
2019-05-01T15:59:27.542Z,99786.34
2019-05-01T16:01:02.553Z,99792.38
2019-05-01T16:02:37.382Z,99787.44
2019-05-01T16:04:12.268Z,99786.56
2019-05-01T16:05:47.067Z,99789.09
2019-05-01T16:07:22.083Z,99787.22
2019-05-01T16:08:57.246Z,99793.20
2019-05-01T16:10:37.184Z,99796.63
2019-05-01T16:12:30.977Z,99791.36
2019-05-01T16:14:05.974Z,99788.08
2019-05-01T16:15:41.002Z,99792.04
2019-05-01T16:17:15.797Z,99788.20
2019-05-01T16:18:50.654Z,99788.32
2019-05-01T16:20:25.479Z,99780.89
2019-05-01T16:22:00.600Z,99780.39
2019-05-01T16:23:35.715Z,99781.16
2019-05-01T16:25:11.107Z,99783.67
2019-05-01T16:26:45.938Z,99783.00
2019-05-01T16:28:20.752Z,99780.86
2019-05-01T16:29:55.784Z,99777.48
2019-05-01T16:31:30.570Z,99780.61
2019-05-01T16:33:05.976Z,99782.20
2019-05-01T16:34:41.073Z,99787.44
2019-05-01T16:36:15.938Z,99783.80
2019-05-01T16:37:50.880Z,99784.08
2019-05-01T16:39:51.088Z,99789.05
2019-05-01T16:41:26.508Z,99784.45
2019-05-01T16:43:01.342Z,99786.05
2019-05-01T16:44:36.140Z,99780.89
2019-05-01T16:46:10.997Z,99777.90
2019-05-01T16:47:46.363Z,99776.76
2019-05-01T16:49:21.414Z,99779.94
2019-05-01T16:50:56.828Z,99777.12
2019-05-01T16:52:34.167Z,99774.30
2019-05-01T16:54:10.020Z,99784.90
2019-05-01T16:55:44.853Z,99780.02
2019-05-01T16:57:19.326Z,99776.44
2019-05-01T16:58:53.725Z,99783.02
2019-05-01T17:00:55.286Z,99775.95
2019-05-01T17:02:48.799Z,99776.36
2019-05-01T17:04:31.037Z,99773.20
2019-05-01T17:06:13.863Z,99780.34
2019-05-01T17:07:58.063Z,99775.36
2019-05-01T17:09:44.989Z,99780.42
2019-05-01T17:11:22.054Z,99776.83
2019-05-01T17:12:57.306Z,99782.20
2019-05-01T17:14:32.770Z,99783.73
2019-05-01T17:16:07.398Z,99783.05
2019-05-01T17:17:42.932Z,99777.92
2019-05-01T17:19:17.324Z,99781.66
2019-05-01T17:20:51.705Z,99782.47
2019-05-01T17:22:26.103Z,99774.31
2019-05-01T17:24:00.510Z,99777.27
2019-05-01T17:25:35.102Z,99786.05
2019-05-01T17:27:10.089Z,99780.41
2019-05-01T17:28:44.472Z,99787.33
2019-05-01T17:30:26.246Z,99789.59
2019-05-01T17:32:00.973Z,99778.02
2019-05-01T17:33:35.368Z,99774.61
2019-05-01T17:35:10.391Z,99769.45
2019-05-01T17:36:45.057Z,99773.54
2019-05-01T17:38:19.472Z,99775.65
2019-05-01T17:39:53.887Z,99781.82
2019-05-01T17:41:28.748Z,99779.98
2019-05-01T17:43:07.938Z,99778.73
2019-05-01T17:44:39.769Z,99775.56
2019-05-01T17:46:14.160Z,99778.78
2019-05-01T17:47:52.673Z,99779.79
2019-05-01T17:49:24.907Z,99780.06
2019-05-01T17:51:00.134Z,99783.68
2019-05-01T17:52:35.439Z,99780.61
2019-05-01T17:54:09.900Z,99776.95
2019-05-01T17:55:44.758Z,99781.50
2019-05-01T17:57:19.798Z,99780.66
2019-05-01T17:58:54.875Z,99785.41
2019-05-01T18:00:47.503Z,99779.66
2019-05-01T18:02:41.388Z,99779.49
2019-05-01T18:04:34.999Z,99783.30
2019-05-01T18:06:15.440Z,99782.19
2019-05-01T18:07:50.299Z,99781.55
2019-05-01T18:09:24.999Z,99782.14
2019-05-01T18:10:59.402Z,99784.56
2019-05-01T18:12:33.812Z,99787.75
2019-05-01T18:14:08.238Z,99785.61
2019-05-01T18:15:42.717Z,99789.10
2019-05-01T18:17:17.230Z,99787.34
2019-05-01T18:18:51.636Z,99781.58
2019-05-01T18:20:26.298Z,99786.16
2019-05-01T18:22:07.566Z,99781.95
2019-05-01T18:24:07.997Z,99783.02
2019-05-01T18:25:46.590Z,99780.29
2019-05-01T18:27:39.718Z,99788.51
2019-05-01T18:29:27.961Z,99785.72
2019-05-01T18:31:02.754Z,99790.44
2019-05-01T18:32:47.487Z,99792.00
2019-05-01T18:34:21.142Z,99785.77
2019-05-01T18:35:56.047Z,99790.48
2019-05-01T18:37:36.378Z,99796.22
2019-05-01T18:39:16.996Z,99793.77
2019-05-01T18:40:56.504Z,99798.39
2019-05-01T18:42:31.293Z,99796.49
2019-05-01T18:44:10.036Z,99794.00
2019-05-01T18:45:51.272Z,99795.34
2019-05-01T18:47:26.541Z,99792.33
2019-05-01T18:49:01.707Z,99798.08
2019-05-01T18:50:36.535Z,99791.86
2019-05-01T18:52:11.697Z,99791.98